sensor_id;sensor_type;location;lat;lon;timestamp;temperature;humidity
14188;DHT22;7175;51.978;5.330;2023-04-30T00:01:05;8.20;99.90
14188;DHT22;7175;51.978;5.330;2023-04-30T00:03:33;8.10;99.90
14188;DHT22;7175;51.978;5.330;2023-04-30T00:06:01;8.10;99.90
14188;DHT22;7175;51.978;5.330;2023-04-30T00:08:29;8.10;99.90
14188;DHT22;7175;51.978;5.330;2023-04-30T00:10:59;8.10;99.90
14188;DHT22;7175;51.978;5.330;2023-04-30T00:13:27;8.10;99.90
14188;DHT22;7175;51.978;5.330;2023-04-30T00:15:55;8.00;99.90
14188;DHT22;7175;51.978;5.330;2023-04-30T00:18:23;8.00;99.90
14188;DHT22;7175;51.978;5.330;2023-04-30T00:20:51;7.90;99.90
14188;DHT22;7175;51.978;5.330;2023-04-30T00:23:19;7.90;99.90
14188;DHT22;7175;51.978;5.330;2023-04-30T00:25:47;7.90;99.90
14188;DHT22;7175;51.978;5.330;2023-04-30T00:28:17;7.80;99.90
14188;DHT22;7175;51.978;5.330;2023-04-30T00:30:45;7.80;99.90
14188;DHT22;7175;51.978;5.330;2023-04-30T00:33:13;7.70;99.90
14188;DHT22;7175;51.978;5.330;2023-04-30T00:35:41;7.70;99.90
14188;DHT22;7175;51.978;5.330;2023-04-30T00:38:09;7.70;99.90
14188;DHT22;7175;51.978;5.330;2023-04-30T00:40:39;7.70;99.90
14188;DHT22;7175;51.978;5.330;2023-04-30T00:43:08;7.70;99.90
14188;DHT22;7175;51.978;5.330;2023-04-30T00:45:37;7.70;99.90
14188;DHT22;7175;51.978;5.330;2023-04-30T00:48:06;7.70;99.90
14188;DHT22;7175;51.978;5.330;2023-04-30T00:50:35;7.70;99.90
14188;DHT22;7175;51.978;5.330;2023-04-30T00:53:03;7.60;99.90
14188;DHT22;7175;51.978;5.330;2023-04-30T00:55:32;7.60;99.90
14188;DHT22;7175;51.978;5.330;2023-04-30T00:58:00;7.60;99.90
14188;DHT22;7175;51.978;5.330;2023-04-30T01:00:28;7.60;99.90
14188;DHT22;7175;51.978;5.330;2023-04-30T01:02:58;7.60;99.90
14188;DHT22;7175;51.978;5.330;2023-04-30T01:05:27;7.60;99.90
14188;DHT22;7175;51.978;5.330;2023-04-30T01:07:55;7.60;99.90
14188;DHT22;7175;51.978;5.330;2023-04-30T01:10:29;7.50;99.90
14188;DHT22;7175;51.978;5.330;2023-04-30T01:13:05;7.50;99.90
14188;DHT22;7175;51.978;5.330;2023-04-30T01:15:39;7.40;99.90
14188;DHT22;7175;51.978;5.330;2023-04-30T01:18:14;7.40;99.90
14188;DHT22;7175;51.978;5.330;2023-04-30T01:20:48;7.40;99.90
14188;DHT22;7175;51.978;5.330;2023-04-30T01:23:27;7.40;99.90
14188;DHT22;7175;51.978;5.330;2023-04-30T01:26:10;7.40;99.90
14188;DHT22;7175;51.978;5.330;2023-04-30T01:28:42;7.30;99.90
14188;DHT22;7175;51.978;5.330;2023-04-30T01:31:12;7.30;99.90
14188;DHT22;7175;51.978;5.330;2023-04-30T01:33:40;7.30;99.90
14188;DHT22;7175;51.978;5.330;2023-04-30T01:36:33;7.30;99.90
14188;DHT22;7175;51.978;5.330;2023-04-30T01:42:09;7.30;99.90
14188;DHT22;7175;51.978;5.330;2023-04-30T01:44:52;7.20;99.90
14188;DHT22;7175;51.978;5.330;2023-04-30T01:47:30;7.10;99.90
14188;DHT22;7175;51.978;5.330;2023-04-30T01:50:08;7.10;99.90
14188;DHT22;7175;51.978;5.330;2023-04-30T01:52:45;7.10;99.90
14188;DHT22;7175;51.978;5.330;2023-04-30T01:55:17;7.10;99.90
14188;DHT22;7175;51.978;5.330;2023-04-30T01:57:54;7.10;99.90
14188;DHT22;7175;51.978;5.330;2023-04-30T02:00:25;7.00;99.90
14188;DHT22;7175;51.978;5.330;2023-04-30T02:02:53;7.00;99.90
14188;DHT22;7175;51.978;5.330;2023-04-30T02:05:22;6.90;99.90
14188;DHT22;7175;51.978;5.330;2023-04-30T02:07:51;6.90;99.90
14188;DHT22;7175;51.978;5.330;2023-04-30T02:10:21;6.90;99.90
14188;DHT22;7175;51.978;5.330;2023-04-30T02:12:49;6.80;99.90
14188;DHT22;7175;51.978;5.330;2023-04-30T02:15:18;6.80;99.90
14188;DHT22;7175;51.978;5.330;2023-04-30T02:17:47;6.70;99.90
14188;DHT22;7175;51.978;5.330;2023-04-30T02:20:15;6.70;99.90
14188;DHT22;7175;51.978;5.330;2023-04-30T02:22:44;6.70;99.90
14188;DHT22;7175;51.978;5.330;2023-04-30T02:25:12;6.70;99.90
14188;DHT22;7175;51.978;5.330;2023-04-30T02:27:40;6.70;99.90
14188;DHT22;7175;51.978;5.330;2023-04-30T02:30:08;6.70;99.90
14188;DHT22;7175;51.978;5.330;2023-04-30T02:32:36;6.70;99.90
14188;DHT22;7175;51.978;5.330;2023-04-30T02:35:07;6.70;99.90
14188;DHT22;7175;51.978;5.330;2023-04-30T02:37:35;6.60;99.90
14188;DHT22;7175;51.978;5.330;2023-04-30T02:40:04;6.60;99.90
14188;DHT22;7175;51.978;5.330;2023-04-30T02:42:32;6.60;99.90
14188;DHT22;7175;51.978;5.330;2023-04-30T02:45:01;6.60;99.90
14188;DHT22;7175;51.978;5.330;2023-04-30T02:47:29;6.60;99.90
14188;DHT22;7175;51.978;5.330;2023-04-30T02:49:57;6.50;99.90
14188;DHT22;7175;51.978;5.330;2023-04-30T02:52:26;6.50;99.90
14188;DHT22;7175;51.978;5.330;2023-04-30T02:54:55;6.50;99.90
14188;DHT22;7175;51.978;5.330;2023-04-30T02:57:23;6.50;99.90
14188;DHT22;7175;51.978;5.330;2023-04-30T02:59:52;6.50;99.90
14188;DHT22;7175;51.978;5.330;2023-04-30T03:02:20;6.50;99.90
14188;DHT22;7175;51.978;5.330;2023-04-30T03:04:49;6.60;99.90
14188;DHT22;7175;51.978;5.330;2023-04-30T03:07:17;6.60;99.90
14188;DHT22;7175;51.978;5.330;2023-04-30T03:09:47;6.60;99.90
14188;DHT22;7175;51.978;5.330;2023-04-30T03:12:15;6.60;99.90
14188;DHT22;7175;51.978;5.330;2023-04-30T03:14:43;6.60;99.90
14188;DHT22;7175;51.978;5.330;2023-04-30T03:17:11;6.60;99.90
14188;DHT22;7175;51.978;5.330;2023-04-30T03:19:39;6.60;99.90
14188;DHT22;7175;51.978;5.330;2023-04-30T03:22:07;6.60;99.90
14188;DHT22;7175;51.978;5.330;2023-04-30T03:24:35;6.60;99.90
14188;DHT22;7175;51.978;5.330;2023-04-30T03:27:05;6.60;99.90
14188;DHT22;7175;51.978;5.330;2023-04-30T03:29:35;6.60;99.90
14188;DHT22;7175;51.978;5.330;2023-04-30T03:32:04;6.60;99.90
14188;DHT22;7175;51.978;5.330;2023-04-30T03:34:32;6.60;99.90
14188;DHT22;7175;51.978;5.330;2023-04-30T03:37:00;6.60;99.90
14188;DHT22;7175;51.978;5.330;2023-04-30T03:39:29;6.60;99.90
14188;DHT22;7175;51.978;5.330;2023-04-30T03:41:57;6.60;99.90
14188;DHT22;7175;51.978;5.330;2023-04-30T03:44:27;6.50;99.90
14188;DHT22;7175;51.978;5.330;2023-04-30T03:46:55;6.50;99.90
14188;DHT22;7175;51.978;5.330;2023-04-30T03:49:23;6.50;99.90
14188;DHT22;7175;51.978;5.330;2023-04-30T03:51:51;6.40;99.90
14188;DHT22;7175;51.978;5.330;2023-04-30T03:54:19;6.40;99.90
14188;DHT22;7175;51.978;5.330;2023-04-30T03:56:48;6.40;99.90
14188;DHT22;7175;51.978;5.330;2023-04-30T03:59:16;6.40;99.90
14188;DHT22;7175;51.978;5.330;2023-04-30T04:01:46;6.40;99.90
14188;DHT22;7175;51.978;5.330;2023-04-30T04:04:14;6.40;99.90
14188;DHT22;7175;51.978;5.330;2023-04-30T04:06:42;6.40;99.90
14188;DHT22;7175;51.978;5.330;2023-04-30T04:09:10;6.40;99.90
14188;DHT22;7175;51.978;5.330;2023-04-30T04:11:39;6.40;99.90
14188;DHT22;7175;51.978;5.330;2023-04-30T04:14:07;6.40;99.90
14188;DHT22;7175;51.978;5.330;2023-04-30T04:16:35;6.30;99.90
14188;DHT22;7175;51.978;5.330;2023-04-30T04:19:05;6.30;99.90
14188;DHT22;7175;51.978;5.330;2023-04-30T04:21:33;6.20;99.90
14188;DHT22;7175;51.978;5.330;2023-04-30T04:24:01;6.20;99.90
14188;DHT22;7175;51.978;5.330;2023-04-30T04:26:34;6.30;99.90
14188;DHT22;7175;51.978;5.330;2023-04-30T04:29:02;6.30;99.90
14188;DHT22;7175;51.978;5.330;2023-04-30T04:31:31;6.30;99.90
14188;DHT22;7175;51.978;5.330;2023-04-30T04:34:01;6.30;99.90
14188;DHT22;7175;51.978;5.330;2023-04-30T04:36:31;6.40;99.90
14188;DHT22;7175;51.978;5.330;2023-04-30T04:39:00;6.40;99.90
14188;DHT22;7175;51.978;5.330;2023-04-30T04:41:29;6.40;99.90
14188;DHT22;7175;51.978;5.330;2023-04-30T04:43:58;6.40;99.90
14188;DHT22;7175;51.978;5.330;2023-04-30T04:46:27;6.40;99.90
14188;DHT22;7175;51.978;5.330;2023-04-30T04:48:56;6.40;99.90
14188;DHT22;7175;51.978;5.330;2023-04-30T04:51:24;6.40;99.90
14188;DHT22;7175;51.978;5.330;2023-04-30T04:53:54;6.50;99.90
14188;DHT22;7175;51.978;5.330;2023-04-30T04:56:22;6.50;99.90
14188;DHT22;7175;51.978;5.330;2023-04-30T04:58:50;6.50;99.90
14188;DHT22;7175;51.978;5.330;2023-04-30T05:01:18;6.50;99.90
14188;DHT22;7175;51.978;5.330;2023-04-30T05:03:47;6.60;99.90
14188;DHT22;7175;51.978;5.330;2023-04-30T05:06:15;6.60;99.90
14188;DHT22;7175;51.978;5.330;2023-04-30T05:08:44;6.60;99.90
14188;DHT22;7175;51.978;5.330;2023-04-30T05:11:13;6.60;99.90
14188;DHT22;7175;51.978;5.330;2023-04-30T05:13:41;6.70;99.90
14188;DHT22;7175;51.978;5.330;2023-04-30T05:16:09;6.80;99.90
14188;DHT22;7175;51.978;5.330;2023-04-30T05:18:38;6.80;99.90
14188;DHT22;7175;51.978;5.330;2023-04-30T05:21:06;6.90;99.90
14188;DHT22;7175;51.978;5.330;2023-04-30T05:23:34;7.00;99.90
14188;DHT22;7175;51.978;5.330;2023-04-30T05:26:03;7.10;99.90
14188;DHT22;7175;51.978;5.330;2023-04-30T05:28:33;7.10;99.90
14188;DHT22;7175;51.978;5.330;2023-04-30T05:31:01;7.30;99.90
14188;DHT22;7175;51.978;5.330;2023-04-30T05:33:29;7.30;99.90
14188;DHT22;7175;51.978;5.330;2023-04-30T05:35:57;7.50;99.90
14188;DHT22;7175;51.978;5.330;2023-04-30T05:38:25;7.60;99.90
14188;DHT22;7175;51.978;5.330;2023-04-30T05:40:53;7.70;99.90
14188;DHT22;7175;51.978;5.330;2023-04-30T05:43:21;7.80;99.90
14188;DHT22;7175;51.978;5.330;2023-04-30T05:45:51;7.90;99.90
14188;DHT22;7175;51.978;5.330;2023-04-30T05:48:20;8.00;99.90
14188;DHT22;7175;51.978;5.330;2023-04-30T05:50:48;8.20;99.90
14188;DHT22;7175;51.978;5.330;2023-04-30T05:53:16;8.30;99.90
14188;DHT22;7175;51.978;5.330;2023-04-30T05:55:44;8.40;99.90
14188;DHT22;7175;51.978;5.330;2023-04-30T05:58:12;8.70;99.90
14188;DHT22;7175;51.978;5.330;2023-04-30T06:00:40;8.80;99.90
14188;DHT22;7175;51.978;5.330;2023-04-30T06:03:10;9.00;99.90
14188;DHT22;7175;51.978;5.330;2023-04-30T06:05:38;9.40;99.90
14188;DHT22;7175;51.978;5.330;2023-04-30T06:08:07;9.60;99.90
14188;DHT22;7175;51.978;5.330;2023-04-30T06:10:36;9.90;99.90
14188;DHT22;7175;51.978;5.330;2023-04-30T06:13:05;10.20;99.90
14188;DHT22;7175;51.978;5.330;2023-04-30T06:15:33;9.80;99.90
14188;DHT22;7175;51.978;5.330;2023-04-30T06:18:01;9.50;99.90
14188;DHT22;7175;51.978;5.330;2023-04-30T06:20:31;9.60;99.90
14188;DHT22;7175;51.978;5.330;2023-04-30T06:23:00;9.90;99.90
14188;DHT22;7175;51.978;5.330;2023-04-30T06:25:29;10.10;99.90
14188;DHT22;7175;51.978;5.330;2023-04-30T06:27:58;10.20;99.90
14188;DHT22;7175;51.978;5.330;2023-04-30T06:30:27;10.30;99.90
14188;DHT22;7175;51.978;5.330;2023-04-30T06:32:57;10.30;99.90
14188;DHT22;7175;51.978;5.330;2023-04-30T06:35:25;10.20;99.90
14188;DHT22;7175;51.978;5.330;2023-04-30T06:37:55;10.40;99.90
14188;DHT22;7175;51.978;5.330;2023-04-30T06:40:23;10.50;99.90
14188;DHT22;7175;51.978;5.330;2023-04-30T06:42:51;10.60;99.90
14188;DHT22;7175;51.978;5.330;2023-04-30T06:45:20;10.70;99.90
14188;DHT22;7175;51.978;5.330;2023-04-30T06:47:49;10.60;99.90
14188;DHT22;7175;51.978;5.330;2023-04-30T06:50:19;10.80;99.90
14188;DHT22;7175;51.978;5.330;2023-04-30T06:52:47;11.00;99.90
14188;DHT22;7175;51.978;5.330;2023-04-30T06:55:17;10.90;99.90
14188;DHT22;7175;51.978;5.330;2023-04-30T06:57:45;11.00;99.90
14188;DHT22;7175;51.978;5.330;2023-04-30T07:00:14;11.30;99.90
14188;DHT22;7175;51.978;5.330;2023-04-30T07:02:42;11.30;99.90
14188;DHT22;7175;51.978;5.330;2023-04-30T07:05:13;11.40;99.90
14188;DHT22;7175;51.978;5.330;2023-04-30T07:07:42;11.40;99.90
14188;DHT22;7175;51.978;5.330;2023-04-30T07:10:10;11.40;99.90
14188;DHT22;7175;51.978;5.330;2023-04-30T07:12:40;11.60;99.90
14188;DHT22;7175;51.978;5.330;2023-04-30T07:15:09;11.90;99.90
14188;DHT22;7175;51.978;5.330;2023-04-30T07:17:37;12.00;99.90
14188;DHT22;7175;51.978;5.330;2023-04-30T07:20:08;11.90;99.90
14188;DHT22;7175;51.978;5.330;2023-04-30T07:22:36;12.00;99.90
14188;DHT22;7175;51.978;5.330;2023-04-30T07:25:05;12.30;99.90
14188;DHT22;7175;51.978;5.330;2023-04-30T07:27:34;12.40;99.90
14188;DHT22;7175;51.978;5.330;2023-04-30T07:30:04;12.50;99.90
14188;DHT22;7175;51.978;5.330;2023-04-30T07:32:33;12.30;99.90
14188;DHT22;7175;51.978;5.330;2023-04-30T07:35:02;12.10;99.90
14188;DHT22;7175;51.978;5.330;2023-04-30T07:37:30;12.10;99.90
14188;DHT22;7175;51.978;5.330;2023-04-30T07:40:02;12.10;99.90
14188;DHT22;7175;51.978;5.330;2023-04-30T07:42:30;12.30;99.90
14188;DHT22;7175;51.978;5.330;2023-04-30T07:44:58;12.50;99.90
14188;DHT22;7175;51.978;5.330;2023-04-30T07:47:31;12.90;99.90
14188;DHT22;7175;51.978;5.330;2023-04-30T07:49:59;12.90;99.90
14188;DHT22;7175;51.978;5.330;2023-04-30T07:52:27;13.00;99.90
14188;DHT22;7175;51.978;5.330;2023-04-30T07:54:55;12.80;99.90
14188;DHT22;7175;51.978;5.330;2023-04-30T07:57:24;12.90;99.90
14188;DHT22;7175;51.978;5.330;2023-04-30T07:59:53;13.10;99.90
14188;DHT22;7175;51.978;5.330;2023-04-30T08:02:22;13.50;99.90
14188;DHT22;7175;51.978;5.330;2023-04-30T08:04:51;13.60;99.90
14188;DHT22;7175;51.978;5.330;2023-04-30T08:07:20;13.70;99.90
14188;DHT22;7175;51.978;5.330;2023-04-30T08:09:48;13.50;99.90
14188;DHT22;7175;51.978;5.330;2023-04-30T08:12:16;13.80;99.90
14188;DHT22;7175;51.978;5.330;2023-04-30T08:14:45;14.10;99.90
14188;DHT22;7175;51.978;5.330;2023-04-30T08:17:13;13.70;99.90
14188;DHT22;7175;51.978;5.330;2023-04-30T08:19:42;13.60;99.90
14188;DHT22;7175;51.978;5.330;2023-04-30T08:22:12;13.90;99.90
14188;DHT22;7175;51.978;5.330;2023-04-30T08:24:40;13.90;99.90
14188;DHT22;7175;51.978;5.330;2023-04-30T08:27:09;13.70;99.90
14188;DHT22;7175;51.978;5.330;2023-04-30T08:29:37;13.90;99.90
14188;DHT22;7175;51.978;5.330;2023-04-30T08:32:06;14.00;99.90
14188;DHT22;7175;51.978;5.330;2023-04-30T08:34:35;13.80;99.90
14188;DHT22;7175;51.978;5.330;2023-04-30T08:37:04;13.60;99.90
14188;DHT22;7175;51.978;5.330;2023-04-30T08:39:34;13.90;99.90
14188;DHT22;7175;51.978;5.330;2023-04-30T08:42:07;13.80;99.90
14188;DHT22;7175;51.978;5.330;2023-04-30T08:44:37;13.90;99.90
14188;DHT22;7175;51.978;5.330;2023-04-30T08:47:10;14.40;99.90
14188;DHT22;7175;51.978;5.330;2023-04-30T08:49:40;14.50;99.90
14188;DHT22;7175;51.978;5.330;2023-04-30T08:52:09;14.70;99.90
14188;DHT22;7175;51.978;5.330;2023-04-30T08:54:39;14.60;99.90
14188;DHT22;7175;51.978;5.330;2023-04-30T08:57:08;14.50;99.90
14188;DHT22;7175;51.978;5.330;2023-04-30T08:59:37;14.50;99.90
14188;DHT22;7175;51.978;5.330;2023-04-30T09:02:06;14.70;99.90
14188;DHT22;7175;51.978;5.330;2023-04-30T09:04:36;14.80;99.90
14188;DHT22;7175;51.978;5.330;2023-04-30T09:07:06;14.90;99.90
14188;DHT22;7175;51.978;5.330;2023-04-30T09:09:39;14.60;99.90
14188;DHT22;7175;51.978;5.330;2023-04-30T09:12:12;15.10;99.90
14188;DHT22;7175;51.978;5.330;2023-04-30T09:14:57;15.10;99.90
14188;DHT22;7175;51.978;5.330;2023-04-30T09:17:26;15.30;99.90
14188;DHT22;7175;51.978;5.330;2023-04-30T09:20:06;15.60;99.90
14188;DHT22;7175;51.978;5.330;2023-04-30T09:22:35;15.30;99.90
14188;DHT22;7175;51.978;5.330;2023-04-30T09:25:07;15.50;99.90
14188;DHT22;7175;51.978;5.330;2023-04-30T09:27:36;15.00;99.90
14188;DHT22;7175;51.978;5.330;2023-04-30T09:30:06;15.20;99.90
14188;DHT22;7175;51.978;5.330;2023-04-30T09:32:34;15.40;99.90
14188;DHT22;7175;51.978;5.330;2023-04-30T09:35:03;15.40;99.90
14188;DHT22;7175;51.978;5.330;2023-04-30T09:37:36;15.80;99.90
14188;DHT22;7175;51.978;5.330;2023-04-30T09:40:08;15.90;99.90
14188;DHT22;7175;51.978;5.330;2023-04-30T09:42:36;16.10;99.90
14188;DHT22;7175;51.978;5.330;2023-04-30T09:45:07;16.20;99.90
14188;DHT22;7175;51.978;5.330;2023-04-30T09:47:38;16.30;99.90
14188;DHT22;7175;51.978;5.330;2023-04-30T09:50:08;16.00;99.90
14188;DHT22;7175;51.978;5.330;2023-04-30T09:52:40;15.80;99.90
14188;DHT22;7175;51.978;5.330;2023-04-30T09:55:17;16.30;99.90
14188;DHT22;7175;51.978;5.330;2023-04-30T09:57:46;16.30;99.90
14188;DHT22;7175;51.978;5.330;2023-04-30T10:00:16;16.10;99.90
14188;DHT22;7175;51.978;5.330;2023-04-30T10:02:45;16.80;99.90
14188;DHT22;7175;51.978;5.330;2023-04-30T10:05:14;16.90;99.90
14188;DHT22;7175;51.978;5.330;2023-04-30T10:07:42;17.00;99.90
14188;DHT22;7175;51.978;5.330;2023-04-30T10:10:11;17.00;99.90
14188;DHT22;7175;51.978;5.330;2023-04-30T10:12:47;17.10;99.90
14188;DHT22;7175;51.978;5.330;2023-04-30T10:15:23;16.80;99.90
14188;DHT22;7175;51.978;5.330;2023-04-30T10:17:55;16.70;99.90
14188;DHT22;7175;51.978;5.330;2023-04-30T10:20:25;17.10;99.90
14188;DHT22;7175;51.978;5.330;2023-04-30T10:22:54;17.60;99.90
14188;DHT22;7175;51.978;5.330;2023-04-30T10:25:22;17.00;99.90
14188;DHT22;7175;51.978;5.330;2023-04-30T10:27:53;17.50;99.90
14188;DHT22;7175;51.978;5.330;2023-04-30T10:30:21;17.80;99.90
14188;DHT22;7175;51.978;5.330;2023-04-30T10:32:55;17.50;99.90
14188;DHT22;7175;51.978;5.330;2023-04-30T10:35:27;17.60;99.90
14188;DHT22;7175;51.978;5.330;2023-04-30T10:38:06;17.80;99.90
14188;DHT22;7175;51.978;5.330;2023-04-30T10:40:38;18.10;99.90
14188;DHT22;7175;51.978;5.330;2023-04-30T10:43:10;18.10;99.90
14188;DHT22;7175;51.978;5.330;2023-04-30T10:45:42;18.20;99.90
14188;DHT22;7175;51.978;5.330;2023-04-30T10:48:10;18.00;99.90
14188;DHT22;7175;51.978;5.330;2023-04-30T10:50:43;18.00;99.90
14188;DHT22;7175;51.978;5.330;2023-04-30T10:53:13;18.20;99.90
14188;DHT22;7175;51.978;5.330;2023-04-30T10:55:46;18.00;99.90
14188;DHT22;7175;51.978;5.330;2023-04-30T10:58:29;17.90;99.90
14188;DHT22;7175;51.978;5.330;2023-04-30T11:01:02;18.30;99.90
14188;DHT22;7175;51.978;5.330;2023-04-30T11:03:32;18.30;99.90
14188;DHT22;7175;51.978;5.330;2023-04-30T11:06:07;17.90;99.90
14188;DHT22;7175;51.978;5.330;2023-04-30T11:08:36;18.50;99.90
14188;DHT22;7175;51.978;5.330;2023-04-30T11:11:07;19.10;99.90
14188;DHT22;7175;51.978;5.330;2023-04-30T11:13:43;18.90;99.90
14188;DHT22;7175;51.978;5.330;2023-04-30T11:16:11;18.40;99.90
14188;DHT22;7175;51.978;5.330;2023-04-30T11:18:43;18.70;99.90
14188;DHT22;7175;51.978;5.330;2023-04-30T11:21:12;19.30;99.90
14188;DHT22;7175;51.978;5.330;2023-04-30T11:23:42;19.10;99.90
14188;DHT22;7175;51.978;5.330;2023-04-30T11:26:11;18.60;99.90
14188;DHT22;7175;51.978;5.330;2023-04-30T11:28:49;18.90;99.90
14188;DHT22;7175;51.978;5.330;2023-04-30T11:31:18;18.90;99.90
14188;DHT22;7175;51.978;5.330;2023-04-30T11:33:46;18.90;99.90
14188;DHT22;7175;51.978;5.330;2023-04-30T11:36:18;19.30;99.90
14188;DHT22;7175;51.978;5.330;2023-04-30T11:38:46;19.40;99.90
14188;DHT22;7175;51.978;5.330;2023-04-30T11:41:15;19.70;99.90
14188;DHT22;7175;51.978;5.330;2023-04-30T11:43:44;20.30;99.90
14188;DHT22;7175;51.978;5.330;2023-04-30T11:46:15;19.50;99.90
14188;DHT22;7175;51.978;5.330;2023-04-30T11:48:45;19.10;99.90
14188;DHT22;7175;51.978;5.330;2023-04-30T11:51:15;19.40;99.90
14188;DHT22;7175;51.978;5.330;2023-04-30T11:53:45;19.80;99.50
14188;DHT22;7175;51.978;5.330;2023-04-30T11:56:16;20.30;98.90
14188;DHT22;7175;51.978;5.330;2023-04-30T11:58:47;20.20;98.50
14188;DHT22;7175;51.978;5.330;2023-04-30T12:01:16;20.20;98.10
14188;DHT22;7175;51.978;5.330;2023-04-30T12:03:47;20.20;97.90
14188;DHT22;7175;51.978;5.330;2023-04-30T12:06:21;20.10;97.90
14188;DHT22;7175;51.978;5.330;2023-04-30T12:08:52;20.20;98.20
14188;DHT22;7175;51.978;5.330;2023-04-30T12:11:21;20.20;97.80
14188;DHT22;7175;51.978;5.330;2023-04-30T12:13:54;20.30;96.90
14188;DHT22;7175;51.978;5.330;2023-04-30T12:16:23;20.50;96.80
14188;DHT22;7175;51.978;5.330;2023-04-30T12:18:52;20.80;96.90
14188;DHT22;7175;51.978;5.330;2023-04-30T12:21:21;20.20;96.70
14188;DHT22;7175;51.978;5.330;2023-04-30T12:23:50;21.10;96.60
14188;DHT22;7175;51.978;5.330;2023-04-30T12:26:19;21.10;93.70
14188;DHT22;7175;51.978;5.330;2023-04-30T12:28:48;21.30;93.70
14188;DHT22;7175;51.978;5.330;2023-04-30T12:31:18;21.80;92.80
14188;DHT22;7175;51.978;5.330;2023-04-30T12:33:53;21.90;91.30
14188;DHT22;7175;51.978;5.330;2023-04-30T12:36:29;21.70;91.50
14188;DHT22;7175;51.978;5.330;2023-04-30T12:39:04;22.10;93.30
14188;DHT22;7175;51.978;5.330;2023-04-30T12:41:39;22.00;91.90
14188;DHT22;7175;51.978;5.330;2023-04-30T12:44:15;21.70;91.50
14188;DHT22;7175;51.978;5.330;2023-04-30T12:46:46;21.20;90.80
14188;DHT22;7175;51.978;5.330;2023-04-30T12:49:24;21.70;90.50
14188;DHT22;7175;51.978;5.330;2023-04-30T12:51:57;21.30;91.40
14188;DHT22;7175;51.978;5.330;2023-04-30T12:54:28;21.40;90.30
14188;DHT22;7175;51.978;5.330;2023-04-30T12:57:00;20.90;90.30
14188;DHT22;7175;51.978;5.330;2023-04-30T12:59:30;20.60;90.70
14188;DHT22;7175;51.978;5.330;2023-04-30T13:02:07;20.90;88.80
14188;DHT22;7175;51.978;5.330;2023-04-30T13:04:37;21.40;90.20
14188;DHT22;7175;51.978;5.330;2023-04-30T13:07:05;21.40;89.20
14188;DHT22;7175;51.978;5.330;2023-04-30T13:09:34;21.20;91.80
14188;DHT22;7175;51.978;5.330;2023-04-30T13:12:04;21.30;89.50
14188;DHT22;7175;51.978;5.330;2023-04-30T13:14:32;21.10;90.60
14188;DHT22;7175;51.978;5.330;2023-04-30T13:17:01;20.40;89.90
14188;DHT22;7175;51.978;5.330;2023-04-30T13:19:33;20.60;90.30
14188;DHT22;7175;51.978;5.330;2023-04-30T13:22:01;21.00;90.20
14188;DHT22;7175;51.978;5.330;2023-04-30T13:24:30;19.90;91.20
14188;DHT22;7175;51.978;5.330;2023-04-30T13:26:58;19.40;92.50
14188;DHT22;7175;51.978;5.330;2023-04-30T13:29:28;20.20;92.60
14188;DHT22;7175;51.978;5.330;2023-04-30T13:31:58;20.40;91.60
14188;DHT22;7175;51.978;5.330;2023-04-30T13:34:26;20.00;91.50
14188;DHT22;7175;51.978;5.330;2023-04-30T13:36:56;20.20;92.60
14188;DHT22;7175;51.978;5.330;2023-04-30T13:39:24;20.90;91.80
14188;DHT22;7175;51.978;5.330;2023-04-30T13:41:53;21.40;91.50
14188;DHT22;7175;51.978;5.330;2023-04-30T13:44:21;21.60;91.70
14188;DHT22;7175;51.978;5.330;2023-04-30T13:46:50;21.60;88.60
14188;DHT22;7175;51.978;5.330;2023-04-30T13:49:18;21.50;90.20
14188;DHT22;7175;51.978;5.330;2023-04-30T13:51:47;21.60;89.70
14188;DHT22;7175;51.978;5.330;2023-04-30T13:54:17;21.00;88.10
14188;DHT22;7175;51.978;5.330;2023-04-30T13:56:45;20.20;91.10
14188;DHT22;7175;51.978;5.330;2023-04-30T13:59:14;19.70;92.30
14188;DHT22;7175;51.978;5.330;2023-04-30T14:01:43;19.80;92.20
14188;DHT22;7175;51.978;5.330;2023-04-30T14:04:11;20.40;91.60
14188;DHT22;7175;51.978;5.330;2023-04-30T14:06:40;20.80;90.80
14188;DHT22;7175;51.978;5.330;2023-04-30T14:09:09;20.10;91.30
14188;DHT22;7175;51.978;5.330;2023-04-30T14:11:40;19.50;90.90
14188;DHT22;7175;51.978;5.330;2023-04-30T14:14:08;20.30;90.70
14188;DHT22;7175;51.978;5.330;2023-04-30T14:16:37;20.10;90.80
14188;DHT22;7175;51.978;5.330;2023-04-30T14:19:05;19.90;90.30
14188;DHT22;7175;51.978;5.330;2023-04-30T14:21:34;19.30;91.50
14188;DHT22;7175;51.978;5.330;2023-04-30T14:24:02;19.70;91.90
14188;DHT22;7175;51.978;5.330;2023-04-30T14:26:31;19.70;91.00
14188;DHT22;7175;51.978;5.330;2023-04-30T14:29:01;20.10;91.90
14188;DHT22;7175;51.978;5.330;2023-04-30T14:31:30;20.10;91.30
14188;DHT22;7175;51.978;5.330;2023-04-30T14:33:59;19.90;91.60
14188;DHT22;7175;51.978;5.330;2023-04-30T14:36:28;20.30;90.80
14188;DHT22;7175;51.978;5.330;2023-04-30T14:38:57;20.00;90.80
14188;DHT22;7175;51.978;5.330;2023-04-30T14:41:25;20.10;91.40
14188;DHT22;7175;51.978;5.330;2023-04-30T14:43:53;19.70;91.90
14188;DHT22;7175;51.978;5.330;2023-04-30T14:46:23;19.20;92.00
14188;DHT22;7175;51.978;5.330;2023-04-30T14:48:55;19.40;92.00
14188;DHT22;7175;51.978;5.330;2023-04-30T14:51:23;19.30;92.40
14188;DHT22;7175;51.978;5.330;2023-04-30T14:53:52;18.90;92.50
14188;DHT22;7175;51.978;5.330;2023-04-30T14:56:20;19.10;93.20
14188;DHT22;7175;51.978;5.330;2023-04-30T14:58:50;18.90;92.80
14188;DHT22;7175;51.978;5.330;2023-04-30T15:01:19;19.00;93.60
14188;DHT22;7175;51.978;5.330;2023-04-30T15:03:49;18.90;93.50
14188;DHT22;7175;51.978;5.330;2023-04-30T15:06:19;19.30;93.70
14188;DHT22;7175;51.978;5.330;2023-04-30T15:08:48;19.00;93.60
14188;DHT22;7175;51.978;5.330;2023-04-30T15:11:16;18.60;93.60
14188;DHT22;7175;51.978;5.330;2023-04-30T15:13:45;18.90;93.90
14188;DHT22;7175;51.978;5.330;2023-04-30T15:16:14;19.00;94.00
14188;DHT22;7175;51.978;5.330;2023-04-30T15:18:43;19.20;93.20
14188;DHT22;7175;51.978;5.330;2023-04-30T15:21:13;19.00;93.70
14188;DHT22;7175;51.978;5.330;2023-04-30T15:23:41;18.90;94.10
14188;DHT22;7175;51.978;5.330;2023-04-30T15:26:10;19.10;93.80
14188;DHT22;7175;51.978;5.330;2023-04-30T15:28:38;18.90;94.30
14188;DHT22;7175;51.978;5.330;2023-04-30T15:31:07;18.90;93.50
14188;DHT22;7175;51.978;5.330;2023-04-30T15:33:38;18.80;94.00
14188;DHT22;7175;51.978;5.330;2023-04-30T15:36:09;18.80;94.20
14188;DHT22;7175;51.978;5.330;2023-04-30T15:38:38;18.70;94.90
14188;DHT22;7175;51.978;5.330;2023-04-30T15:41:07;18.40;94.20
14188;DHT22;7175;51.978;5.330;2023-04-30T15:43:35;18.40;94.40
14188;DHT22;7175;51.978;5.330;2023-04-30T15:46:03;18.10;94.90
14188;DHT22;7175;51.978;5.330;2023-04-30T15:48:31;18.10;94.60
14188;DHT22;7175;51.978;5.330;2023-04-30T15:50:59;17.90;95.30
14188;DHT22;7175;51.978;5.330;2023-04-30T15:53:28;18.20;94.80
14188;DHT22;7175;51.978;5.330;2023-04-30T15:55:57;18.00;94.80
14188;DHT22;7175;51.978;5.330;2023-04-30T15:58:25;18.20;95.30
14188;DHT22;7175;51.978;5.330;2023-04-30T16:00:53;18.00;95.50
14188;DHT22;7175;51.978;5.330;2023-04-30T16:03:21;18.20;95.90
14188;DHT22;7175;51.978;5.330;2023-04-30T16:05:50;18.20;95.50
14188;DHT22;7175;51.978;5.330;2023-04-30T16:08:18;18.10;95.70
14188;DHT22;7175;51.978;5.330;2023-04-30T16:10:46;18.00;95.50